METAR Formatted Surface Weather Observation
Issued by NWS

Home | Current Version | Previous Version | Text Only | Print | Product List | Glossary On
Versions: 1 2 3 4 5 6 7 8 9 10 11 12 13 14 15 16 17 18 19 20 21 22 23 24 25
181
SAUS44 KMOB 090059
MTRPRN
METAR KPRN 090056Z AUTO 30017G26KT 10SM BKN090 09/M07 A2991 RMK AO2
PK WND 32027/0040 RAB38E51 SLP130 P0000 T00891067



USA.gov is the U.S. government's official web portal to all federal, state and local government web resources and services.